KSWF Airport (New York Stewart Intl) Information

FAA: SWF - ICAO: KSWF

KSWF Airport Location

State New York
County Orange
City New York
KSWF Airport is 44 miles north of New York, NY.
Latitude 41-30-14.8000N
Longitude 074-06-17.4000W
Elevation 490ft

KSWF Airport METARs

METAR KSWF 262345Z 30020G30KT 10SM OVC040 02/M05 A2965
Altimeter 29.65"
Temperature 2.0°C (35.6°F)
Wind 300° at 20KT with gusts to 30KT
Clouds overcast at 4,000ft
Visibility 10.0mi
Time observed: 2021-11-26T23:45:00Z

KSWF Airport Details

Status Operational
Activation May 1941
Ownership Public
Usage Public
Chart NEW YORK
ATC on-site Yes
Beacon schedule sunset-sunrise
Beacon color clear green

KSWF Airport Contacts

Owner PORT AUTHORITY OF NY & NJ
Owner address 1180 FIRST ST, NEW WINDSOR, NY 12553
Owner phone 845-564-2100
Manager WINTHROP UNIVERSITY HOSPITAL
Manager address 259 FIRST STREET, MINEOLA, NY 11501
Manager phone 516-663-0333

KSWF Airport (New York Stewart Intl) Radio Frequencies

KSWF (Airport) Radio Frequencies

UNICOM 122.95
Common traffic advisory frequency (CTAF) N/A